Time,TemperatureF,DewpointF,PressureIn,WindDirection,WindDirectionDegrees,WindSpeedMPH,WindSpeedGustMPH,Humidity,HourlyPrecipIn,Conditions,Clouds,dailyrainin,SoftwareType,DateUTC
2013-03-30 00:00:00,40.9,37.9,30.08,SE,135,0.4,0.4,89,0.00,,,0.00,WUHU216HW,2013-03-30 07:00:00,
2013-03-30 00:05:00,40.9,37.9,30.08,SE,135,0.4,0.4,89,0.00,,,0.00,WUHU216HW,2013-03-30 07:05:00,
2013-03-30 00:30:00,39.6,36.6,30.09,South,180,0.0,0.0,89,0.00,,,0.00,WUHU216HW,2013-03-30 07:30:00,
2013-03-30 00:35:00,39.6,36.6,30.09,South,180,0.0,0.0,89,0.00,,,0.00,WUHU216HW,2013-03-30 07:35:00,
2013-03-30 01:00:00,39.1,35.8,30.09,South,180,0.7,0.7,88,0.00,,,0.00,WUHU216HW,2013-03-30 08:00:00,
2013-03-30 01:05:00,39.1,35.8,30.09,South,180,0.7,0.7,88,0.00,,,0.00,WUHU216HW,2013-03-30 08:05:00,
2013-03-30 01:30:00,38.0,35.3,30.09,South,180,0.0,0.0,90,0.00,,,0.00,WUHU216HW,2013-03-30 08:30:00,
2013-03-30 01:35:00,38.0,35.3,30.09,South,180,0.0,0.0,90,0.00,,,0.00,WUHU216HW,2013-03-30 08:35:00,
2013-03-30 02:00:00,37.4,34.7,30.09,ESE,113,0.0,0.0,90,0.00,,,0.00,WUHU216HW,2013-03-30 09:00:00,
2013-03-30 02:05:00,37.4,34.7,30.09,ESE,113,0.0,0.0,90,0.00,,,0.00,WUHU216HW,2013-03-30 09:05:00,
2013-03-30 02:30:00,36.7,34.3,30.09,SE,135,0.0,0.0,91,0.00,,,0.00,WUHU216HW,2013-03-30 09:30:00,
2013-03-30 02:34:00,36.7,34.3,30.09,SE,135,0.0,0.0,91,0.00,,,0.00,WUHU216HW,2013-03-30 09:34:00,
2013-03-30 02:39:00,36.7,34.3,30.09,SE,135,0.0,0.0,91,0.00,,,0.00,WUHU216HW,2013-03-30 09:39:00,
2013-03-30 03:00:00,35.8,33.4,30.10,SE,135,0.0,0.0,91,0.00,,,0.00,WUHU216HW,2013-03-30 10:00:00,
2013-03-30 03:05:00,35.8,33.4,30.10,SE,135,0.0,0.0,91,0.00,,,0.00,WUHU216HW,2013-03-30 10:05:00,
2013-03-30 03:30:00,35.1,32.7,30.10,SE,135,0.0,0.0,91,0.00,,,0.00,WUHU216HW,2013-03-30 10:30:00,
2013-03-30 03:35:00,35.1,32.7,30.10,SE,135,0.0,0.0,91,0.00,,,0.00,WUHU216HW,2013-03-30 10:35:00,
2013-03-30 04:00:00,34.7,32.3,30.10,SE,135,0.0,0.0,91,0.00,,,0.00,WUHU216HW,2013-03-30 11:00:00,
2013-03-30 04:05:00,34.7,32.3,30.10,SE,135,0.0,0.0,91,0.00,,,0.00,WUHU216HW,2013-03-30 11:05:00,
2013-03-30 04:10:00,34.7,32.3,30.10,SE,135,0.0,0.0,91,0.00,,,0.00,WUHU216HW,2013-03-30 11:10:00,
2013-03-30 04:30:00,34.2,31.8,30.09,SE,135,0.0,0.0,91,0.00,,,0.00,WUHU216HW,2013-03-30 11:30:00,
2013-03-30 04:35:00,34.2,31.8,30.09,SE,135,0.0,0.0,91,0.00,,,0.00,WUHU216HW,2013-03-30 11:35:00,
2013-03-30 05:00:00,33.7,31.5,30.09,SE,135,0.0,0.0,92,0.00,,,0.00,WUHU216HW,2013-03-30 12:00:00,
2013-03-30 05:05:00,33.7,31.5,30.09,SE,135,0.0,0.0,92,0.00,,,0.00,WUHU216HW,2013-03-30 12:05:00,
2013-03-30 05:30:00,33.1,31.1,30.08,SE,135,0.0,0.0,92,0.00,,,0.00,WUHU216HW,2013-03-30 12:30:00,
2013-03-30 05:35:00,33.1,31.1,30.08,SE,135,0.0,0.0,92,0.00,,,0.00,WUHU216HW,2013-03-30 12:35:00,
2013-03-30 06:00:00,32.8,30.7,30.09,SE,135,0.0,0.0,92,0.00,,,0.00,WUHU216HW,2013-03-30 13:00:00,
2013-03-30 06:05:00,32.8,30.7,30.09,SE,135,0.0,0.0,92,0.00,,,0.00,WUHU216HW,2013-03-30 13:05:00,
2013-03-30 06:30:00,32.4,30.3,30.08,SE,135,0.0,0.0,92,0.00,,,0.00,WUHU216HW,2013-03-30 13:30:00,
2013-03-30 06:35:00,32.4,30.3,30.08,SE,135,0.0,0.0,92,0.00,,,0.00,WUHU216HW,2013-03-30 13:35:00,
2013-03-30 07:00:00,32.0,30.1,30.09,SE,135,0.0,0.0,92,0.00,,,0.00,WUHU216HW,2013-03-30 14:00:00,
2013-03-30 07:05:00,32.0,30.1,30.09,SE,135,0.0,0.0,92,0.00,,,0.00,WUHU216HW,2013-03-30 14:05:00,
2013-03-30 07:30:00,32.6,30.5,30.09,NE,45,0.0,0.0,92,0.00,,,0.00,WUHU216HW,2013-03-30 14:30:00,
2013-03-30 07:35:00,32.6,30.5,30.09,NE,45,0.0,0.0,92,0.00,,,0.00,WUHU216HW,2013-03-30 14:35:00,
2013-03-30 08:00:00,33.5,31.6,30.08,SE,135,0.0,0.0,93,0.00,,,0.00,WUHU216HW,2013-03-30 15:00:00,
2013-03-30 08:05:00,33.5,31.6,30.08,SE,135,0.0,0.0,93,0.00,,,0.00,WUHU216HW,2013-03-30 15:05:00,
2013-03-30 08:30:00,34.2,32.6,30.09,SE,135,0.0,0.0,94,0.00,,,0.00,WUHU216HW,2013-03-30 15:30:00,
2013-03-30 08:35:00,34.2,32.6,30.09,SE,135,0.0,0.0,94,0.00,,,0.00,WUHU216HW,2013-03-30 15:35:00,
2013-03-30 09:00:00,37.4,35.8,30.08,East,90,0.7,0.7,94,0.00,,,0.00,WUHU216HW,2013-03-30 16:00:00,
2013-03-30 09:05:00,37.4,35.8,30.08,East,90,0.7,0.7,94,0.00,,,0.00,WUHU216HW,2013-03-30 16:05:00,
2013-03-30 09:30:00,46.1,44.5,30.07,NE,45,1.1,1.1,94,0.00,,,0.00,WUHU216HW,2013-03-30 16:30:00,
2013-03-30 09:35:00,46.1,44.5,30.07,NE,45,1.1,1.1,94,0.00,,,0.00,WUHU216HW,2013-03-30 16:35:00,
2013-03-30 10:00:00,49.3,45.3,30.06,ENE,68,1.6,1.6,86,0.00,,,0.00,WUHU216HW,2013-03-30 17:00:00,
2013-03-30 10:05:00,49.3,45.3,30.06,ENE,68,1.6,1.6,86,0.00,,,0.00,WUHU216HW,2013-03-30 17:05:00,
2013-03-30 10:30:00,52.7,47.1,30.06,NE,45,0.7,0.7,81,0.00,,,0.00,WUHU216HW,2013-03-30 17:30:00,
2013-03-30 10:35:00,52.7,47.1,30.06,NE,45,0.7,0.7,81,0.00,,,0.00,WUHU216HW,2013-03-30 17:35:00,
2013-03-30 11:00:00,56.7,46.6,30.05,WNW,293,0.7,0.7,69,0.00,,,0.00,WUHU216HW,2013-03-30 18:00:00,
2013-03-30 11:05:00,56.7,46.6,30.05,WNW,293,0.7,0.7,69,0.00,,,0.00,WUHU216HW,2013-03-30 18:05:00,
2013-03-30 11:30:00,60.8,48.3,30.04,NNW,338,1.8,1.8,63,0.00,,,0.00,WUHU216HW,2013-03-30 18:30:00,
2013-03-30 11:35:00,60.8,48.3,30.04,NNW,338,1.8,1.8,63,0.00,,,0.00,WUHU216HW,2013-03-30 18:35:00,
2013-03-30 12:00:00,63.4,44.4,30.04,NNE,23,8.9,8.9,50,0.00,,,0.00,WUHU216HW,2013-03-30 19:00:00,
2013-03-30 12:05:00,63.4,44.4,30.04,NNE,23,8.9,8.9,50,0.00,,,0.00,WUHU216HW,2013-03-30 19:05:00,
2013-03-30 12:30:00,65.0,45.4,30.03,WNW,293,2.5,2.5,49,0.00,,,0.00,WUHU216HW,2013-03-30 19:30:00,
2013-03-30 12:35:00,65.0,45.4,30.03,WNW,293,2.5,2.5,49,0.00,,,0.00,WUHU216HW,2013-03-30 19:35:00,
2013-03-30 13:00:00,66.6,45.1,30.02,NNW,338,4.3,4.3,46,0.00,,,0.00,WUHU216HW,2013-03-30 20:00:00,
2013-03-30 13:05:00,66.6,45.1,30.02,NNW,338,4.3,4.3,46,0.00,,,0.00,WUHU216HW,2013-03-30 20:05:00,
2013-03-30 13:30:00,71.6,45.4,30.01,NNW,338,3.1,3.1,39,0.00,,,0.00,WUHU216HW,2013-03-30 20:30:00,
2013-03-30 13:35:00,71.6,45.4,30.01,NNW,338,3.1,3.1,39,0.00,,,0.00,WUHU216HW,2013-03-30 20:35:00,
2013-03-30 14:00:00,70.7,45.3,30.00,NW,315,3.4,3.4,40,0.00,,,0.00,WUHU216HW,2013-03-30 21:00:00,
2013-03-30 14:05:00,70.7,45.3,30.00,NW,315,3.4,3.4,40,0.00,,,0.00,WUHU216HW,2013-03-30 21:05:00,
2013-03-30 14:30:00,71.6,47.3,29.99,WSW,248,0.7,0.7,42,0.00,,,0.00,WUHU216HW,2013-03-30 21:30:00,
2013-03-30 14:35:00,71.6,47.3,29.99,WSW,248,0.7,0.7,42,0.00,,,0.00,WUHU216HW,2013-03-30 21:35:00,
2013-03-30 15:00:00,72.2,45.8,29.98,NW,315,3.4,3.4,39,0.00,,,0.00,WUHU216HW,2013-03-30 22:00:00,
2013-03-30 15:05:00,72.2,45.8,29.98,NW,315,3.4,3.4,39,0.00,,,0.00,WUHU216HW,2013-03-30 22:05:00,
2013-03-30 15:30:00,72.7,46.3,29.96,NW,315,4.0,4.0,39,0.00,,,0.00,WUHU216HW,2013-03-30 22:30:00,
2013-03-30 15:35:00,72.7,46.3,29.96,NW,315,4.0,4.0,39,0.00,,,0.00,WUHU216HW,2013-03-30 22:35:00,
2013-03-30 16:00:00,73.8,45.7,29.95,NW,315,6.3,6.3,37,0.00,,,0.00,WUHU216HW,2013-03-30 23:00:00,
2013-03-30 16:05:00,73.8,45.7,29.95,NW,315,6.3,6.3,37,0.00,,,0.00,WUHU216HW,2013-03-30 23:05:00,
2013-03-30 16:30:00,72.7,45.5,29.94,North,0,2.0,2.0,38,0.00,,,0.00,WUHU216HW,2013-03-30 23:30:00,
2013-03-30 16:35:00,72.7,45.5,29.94,North,0,2.0,2.0,38,0.00,,,0.00,WUHU216HW,2013-03-30 23:35:00,
2013-03-30 17:00:00,72.9,45.0,29.93,NW,315,6.3,6.3,37,0.00,,,0.00,WUHU216HW,2013-03-31 00:00:00,
2013-03-30 17:05:00,72.9,45.0,29.93,NW,315,6.3,6.3,37,0.00,,,0.00,WUHU216HW,2013-03-31 00:05:00,
2013-03-30 17:30:00,72.4,45.3,29.93,North,0,4.9,4.9,38,0.00,,,0.00,WUHU216HW,2013-03-31 00:30:00,
2013-03-30 17:35:00,72.4,45.3,29.93,North,0,4.9,4.9,38,0.00,,,0.00,WUHU216HW,2013-03-31 00:35:00,
2013-03-30 17:59:00,69.8,43.8,29.92,NNW,338,6.9,6.9,39,0.00,,,0.00,WUHU216HW,2013-03-31 00:59:00,
2013-03-30 18:00:00,69.8,43.8,29.92,NNW,338,6.9,6.9,39,0.00,,,0.00,WUHU216HW,2013-03-31 01:00:00,
2013-03-30 18:05:00,69.8,43.8,29.92,NNW,338,6.9,6.9,39,0.00,,,0.00,WUHU216HW,2013-03-31 01:05:00,
2013-03-30 18:30:00,67.7,42.5,29.91,NNW,338,5.8,5.8,40,0.00,,,0.00,WUHU216HW,2013-03-31 01:30:00,
2013-03-30 18:35:00,67.7,42.5,29.91,NNW,338,5.8,5.8,40,0.00,,,0.00,WUHU216HW,2013-03-31 01:35:00,
2013-03-30 18:59:00,66.2,43.0,29.91,NNW,338,2.7,2.7,43,0.00,,,0.00,WUHU216HW,2013-03-31 01:59:00,
2013-03-30 19:00:00,66.2,43.0,29.91,NNW,338,2.7,2.7,43,0.00,,,0.00,WUHU216HW,2013-03-31 02:00:00,
2013-03-30 19:05:00,66.2,43.0,29.91,NNW,338,2.7,2.7,43,0.00,,,0.00,WUHU216HW,2013-03-31 02:05:00,
2013-03-30 19:30:00,60.5,45.2,29.91,North,0,0.4,0.4,57,0.00,,,0.00,WUHU216HW,2013-03-31 02:30:00,
2013-03-30 19:35:00,60.5,45.2,29.91,North,0,0.4,0.4,57,0.00,,,0.00,WUHU216HW,2013-03-31 02:35:00,
2013-03-30 19:59:00,56.2,44.1,29.91,NNW,338,1.1,1.1,64,0.00,,,0.00,WUHU216HW,2013-03-31 02:59:00,
2013-03-30 20:00:00,56.2,44.1,29.91,NNW,338,1.1,1.1,64,0.00,,,0.00,WUHU216HW,2013-03-31 03:00:00,
2013-03-30 20:05:00,56.2,44.1,29.91,NNW,338,1.1,1.1,64,0.00,,,0.00,WUHU216HW,2013-03-31 03:05:00,
2013-03-30 20:30:00,53.3,44.5,29.92,NNE,23,0.7,0.7,72,0.00,,,0.00,WUHU216HW,2013-03-31 03:30:00,
2013-03-30 20:35:00,53.3,44.5,29.92,NNE,23,0.7,0.7,72,0.00,,,0.00,WUHU216HW,2013-03-31 03:35:00,
2013-03-30 21:00:00,50.8,44.1,29.92,NW,315,1.1,1.1,78,0.00,,,0.00,WUHU216HW,2013-03-31 04:00:00,
2013-03-30 21:05:00,50.8,44.1,29.92,NW,315,1.1,1.1,78,0.00,,,0.00,WUHU216HW,2013-03-31 04:05:00,
2013-03-30 21:30:00,48.8,42.8,29.92,SW,225,0.0,0.0,80,0.00,,,0.00,WUHU216HW,2013-03-31 04:30:00,
2013-03-30 21:35:00,48.8,42.8,29.92,SW,225,0.0,0.0,80,0.00,,,0.00,WUHU216HW,2013-03-31 04:35:00,
2013-03-30 22:00:00,47.2,42.3,29.92,SSW,203,0.0,0.0,83,0.00,,,0.00,WUHU216HW,2013-03-31 05:00:00,
2013-03-30 22:05:00,47.2,42.3,29.92,SSW,203,0.0,0.0,83,0.00,,,0.00,WUHU216HW,2013-03-31 05:05:00,
2013-03-30 22:30:00,45.7,40.9,29.92,South,180,0.0,0.0,83,0.00,,,0.00,WUHU216HW,2013-03-31 05:30:00,
2013-03-30 22:35:00,45.7,40.9,29.92,South,180,0.0,0.0,83,0.00,,,0.00,WUHU216HW,2013-03-31 05:35:00,
2013-03-30 23:00:00,44.5,40.2,29.91,SW,225,0.0,0.0,85,0.00,,,0.00,WUHU216HW,2013-03-31 06:00:00,
2013-03-30 23:05:00,44.5,40.2,29.91,SW,225,0.0,0.0,85,0.00,,,0.00,WUHU216HW,2013-03-31 06:05:00,
2013-03-30 23:30:00,42.8,39.3,29.91,SSE,158,0.0,0.0,87,0.00,,,0.00,WUHU216HW,2013-03-31 06:30:00,
2013-03-30 23:35:00,42.8,39.3,29.91,SSE,158,0.0,0.0,87,0.00,,,0.00,WUHU216HW,2013-03-31 06:35:00,